sensor_id;sensor_type;location;lat;lon;timestamp;temperature;humidity
3705;DHT22;1868;48.918;9.438;2023-02-15T00:00:16;-0.50;97.40
3705;DHT22;1868;48.918;9.438;2023-02-15T00:02:45;-0.50;97.40
3705;DHT22;1868;48.918;9.438;2023-02-15T00:05:14;-0.50;97.40
3705;DHT22;1868;48.918;9.438;2023-02-15T00:07:42;-0.40;97.40
3705;DHT22;1868;48.918;9.438;2023-02-15T00:10:10;-0.50;97.40
3705;DHT22;1868;48.918;9.438;2023-02-15T00:12:39;-0.50;97.40
3705;DHT22;1868;48.918;9.438;2023-02-15T00:15:08;-0.50;97.40
3705;DHT22;1868;48.918;9.438;2023-02-15T00:17:38;-0.50;97.40
3705;DHT22;1868;48.918;9.438;2023-02-15T00:20:07;-0.60;97.40
3705;DHT22;1868;48.918;9.438;2023-02-15T00:22:35;-0.60;97.40
3705;DHT22;1868;48.918;9.438;2023-02-15T00:25:04;-0.60;97.40
3705;DHT22;1868;48.918;9.438;2023-02-15T00:27:33;-0.60;97.40
3705;DHT22;1868;48.918;9.438;2023-02-15T00:30:02;-0.70;97.40
3705;DHT22;1868;48.918;9.438;2023-02-15T00:32:32;-0.70;97.40
3705;DHT22;1868;48.918;9.438;2023-02-15T00:35:01;-0.70;97.40
3705;DHT22;1868;48.918;9.438;2023-02-15T00:37:29;-0.80;97.40
3705;DHT22;1868;48.918;9.438;2023-02-15T00:39:57;-0.80;97.40
3705;DHT22;1868;48.918;9.438;2023-02-15T00:42:25;-0.80;97.40
3705;DHT22;1868;48.918;9.438;2023-02-15T00:44:54;-0.80;97.40
3705;DHT22;1868;48.918;9.438;2023-02-15T00:47:22;-0.90;97.40
3705;DHT22;1868;48.918;9.438;2023-02-15T00:49:53;-0.90;97.40
3705;DHT22;1868;48.918;9.438;2023-02-15T00:52:21;-0.90;97.40
3705;DHT22;1868;48.918;9.438;2023-02-15T00:54:49;-1.00;97.40
3705;DHT22;1868;48.918;9.438;2023-02-15T00:57:17;-1.00;97.40
3705;DHT22;1868;48.918;9.438;2023-02-15T00:59:46;-1.10;97.40
3705;DHT22;1868;48.918;9.438;2023-02-15T01:02:14;-1.10;97.40
3705;DHT22;1868;48.918;9.438;2023-02-15T01:04:42;-1.10;97.40
3705;DHT22;1868;48.918;9.438;2023-02-15T01:07:12;-1.10;97.40
3705;DHT22;1868;48.918;9.438;2023-02-15T01:09:40;-1.10;97.40
3705;DHT22;1868;48.918;9.438;2023-02-15T01:12:09;-1.00;97.40
3705;DHT22;1868;48.918;9.438;2023-02-15T01:14:37;-1.00;97.40
3705;DHT22;1868;48.918;9.438;2023-02-15T01:17:05;-1.00;97.40
3705;DHT22;1868;48.918;9.438;2023-02-15T01:19:34;-1.00;97.40
3705;DHT22;1868;48.918;9.438;2023-02-15T01:22:03;-1.00;97.40
3705;DHT22;1868;48.918;9.438;2023-02-15T01:24:35;-1.00;97.40
3705;DHT22;1868;48.918;9.438;2023-02-15T01:27:04;-1.00;97.40
3705;DHT22;1868;48.918;9.438;2023-02-15T01:29:32;-1.10;97.40
3705;DHT22;1868;48.918;9.438;2023-02-15T01:32:03;-1.10;97.40
3705;DHT22;1868;48.918;9.438;2023-02-15T01:34:32;-1.20;97.40
3705;DHT22;1868;48.918;9.438;2023-02-15T01:37:00;-1.20;97.40
3705;DHT22;1868;48.918;9.438;2023-02-15T01:39:28;-1.20;97.40
3705;DHT22;1868;48.918;9.438;2023-02-15T01:41:58;-1.30;97.40
3705;DHT22;1868;48.918;9.438;2023-02-15T01:44:46;-1.30;97.40
3705;DHT22;1868;48.918;9.438;2023-02-15T01:47:22;-1.40;97.40
3705;DHT22;1868;48.918;9.438;2023-02-15T01:49:58;-1.40;97.40
3705;DHT22;1868;48.918;9.438;2023-02-15T01:52:30;-1.40;97.40
3705;DHT22;1868;48.918;9.438;2023-02-15T01:54:58;-1.50;97.40
3705;DHT22;1868;48.918;9.438;2023-02-15T01:57:30;-1.50;97.40
3705;DHT22;1868;48.918;9.438;2023-02-15T02:00:01;-1.50;97.40
3705;DHT22;1868;48.918;9.438;2023-02-15T02:02:38;-1.50;97.40
3705;DHT22;1868;48.918;9.438;2023-02-15T02:05:08;-1.60;97.40
3705;DHT22;1868;48.918;9.438;2023-02-15T02:07:40;-1.60;97.40
3705;DHT22;1868;48.918;9.438;2023-02-15T02:10:12;-1.60;97.40
3705;DHT22;1868;48.918;9.438;2023-02-15T02:12:45;-1.60;97.40
3705;DHT22;1868;48.918;9.438;2023-02-15T02:15:15;-1.60;97.40
3705;DHT22;1868;48.918;9.438;2023-02-15T02:17:54;-1.60;97.40
3705;DHT22;1868;48.918;9.438;2023-02-15T02:20:50;-1.60;97.40
3705;DHT22;1868;48.918;9.438;2023-02-15T02:23:43;-1.60;97.40
3705;DHT22;1868;48.918;9.438;2023-02-15T02:36:15;-1.70;97.40
3705;DHT22;1868;48.918;9.438;2023-02-15T02:39:00;-1.70;97.40
3705;DHT22;1868;48.918;9.438;2023-02-15T02:41:41;-1.70;97.40
3705;DHT22;1868;48.918;9.438;2023-02-15T02:44:17;-1.70;97.40
3705;DHT22;1868;48.918;9.438;2023-02-15T02:46:52;-1.70;97.40
3705;DHT22;1868;48.918;9.438;2023-02-15T02:49:32;-1.70;97.40
3705;DHT22;1868;48.918;9.438;2023-02-15T02:52:01;-1.70;97.40
3705;DHT22;1868;48.918;9.438;2023-02-15T02:54:34;-1.70;97.40
3705;DHT22;1868;48.918;9.438;2023-02-15T02:57:05;-1.80;97.40
3705;DHT22;1868;48.918;9.438;2023-02-15T02:59:38;-1.90;97.40
3705;DHT22;1868;48.918;9.438;2023-02-15T03:02:14;-1.90;97.40
3705;DHT22;1868;48.918;9.438;2023-02-15T03:04:50;-1.90;97.40
3705;DHT22;1868;48.918;9.438;2023-02-15T03:07:26;-1.90;97.40
3705;DHT22;1868;48.918;9.438;2023-02-15T03:09:59;-1.90;97.40
3705;DHT22;1868;48.918;9.438;2023-02-15T03:12:32;-1.90;97.40
3705;DHT22;1868;48.918;9.438;2023-02-15T03:15:03;-1.90;97.40
3705;DHT22;1868;48.918;9.438;2023-02-15T03:17:40;-1.80;97.40
3705;DHT22;1868;48.918;9.438;2023-02-15T03:20:15;-1.90;97.40
3705;DHT22;1868;48.918;9.438;2023-02-15T03:22:48;-1.80;97.40
3705;DHT22;1868;48.918;9.438;2023-02-15T03:25:21;-1.90;97.40
3705;DHT22;1868;48.918;9.438;2023-02-15T03:27:54;-1.90;97.40
3705;DHT22;1868;48.918;9.438;2023-02-15T03:30:24;-1.80;97.40
3705;DHT22;1868;48.918;9.438;2023-02-15T03:32:56;-1.90;97.40
3705;DHT22;1868;48.918;9.438;2023-02-15T03:35:33;-1.90;97.40
3705;DHT22;1868;48.918;9.438;2023-02-15T03:38:06;-1.80;97.40
3705;DHT22;1868;48.918;9.438;2023-02-15T03:40:37;-1.80;97.40
3705;DHT22;1868;48.918;9.438;2023-02-15T03:43:29;-1.90;97.40
3705;DHT22;1868;48.918;9.438;2023-02-15T03:46:05;-1.90;97.40
3705;DHT22;1868;48.918;9.438;2023-02-15T03:48:39;-1.90;97.40
3705;DHT22;1868;48.918;9.438;2023-02-15T03:51:14;-1.90;97.40
3705;DHT22;1868;48.918;9.438;2023-02-15T03:54:07;-1.90;97.40
3705;DHT22;1868;48.918;9.438;2023-02-15T03:56:39;-1.90;97.40
3705;DHT22;1868;48.918;9.438;2023-02-15T03:59:28;-1.90;97.40
3705;DHT22;1868;48.918;9.438;2023-02-15T04:02:21;-1.90;97.40
3705;DHT22;1868;48.918;9.438;2023-02-15T04:04:50;-1.90;97.40
3705;DHT22;1868;48.918;9.438;2023-02-15T04:07:20;-1.90;97.40
3705;DHT22;1868;48.918;9.438;2023-02-15T04:09:48;-1.90;97.40
3705;DHT22;1868;48.918;9.438;2023-02-15T04:12:34;-2.00;97.40
3705;DHT22;1868;48.918;9.438;2023-02-15T04:15:02;-2.00;97.40
3705;DHT22;1868;48.918;9.438;2023-02-15T04:17:48;-2.10;97.40
3705;DHT22;1868;48.918;9.438;2023-02-15T04:20:17;-2.10;97.40
3705;DHT22;1868;48.918;9.438;2023-02-15T04:23:07;-2.10;97.40
3705;DHT22;1868;48.918;9.438;2023-02-15T04:25:52;-2.10;97.40
3705;DHT22;1868;48.918;9.438;2023-02-15T04:28:21;-2.10;97.40
3705;DHT22;1868;48.918;9.438;2023-02-15T04:30:49;-2.20;97.40
3705;DHT22;1868;48.918;9.438;2023-02-15T04:33:17;-2.20;97.40
3705;DHT22;1868;48.918;9.438;2023-02-15T04:35:46;-2.20;97.40
3705;DHT22;1868;48.918;9.438;2023-02-15T04:38:15;-2.20;97.40
3705;DHT22;1868;48.918;9.438;2023-02-15T04:40:43;-2.20;97.40
3705;DHT22;1868;48.918;9.438;2023-02-15T04:43:12;-2.30;97.40
3705;DHT22;1868;48.918;9.438;2023-02-15T04:45:40;-2.30;97.40
3705;DHT22;1868;48.918;9.438;2023-02-15T04:48:08;-2.30;97.40
3705;DHT22;1868;48.918;9.438;2023-02-15T04:50:37;-2.40;97.40
3705;DHT22;1868;48.918;9.438;2023-02-15T04:53:05;-2.40;97.40
3705;DHT22;1868;48.918;9.438;2023-02-15T04:55:34;-2.40;97.40
3705;DHT22;1868;48.918;9.438;2023-02-15T04:58:03;-2.40;97.40
3705;DHT22;1868;48.918;9.438;2023-02-15T05:00:31;-2.30;97.40
3705;DHT22;1868;48.918;9.438;2023-02-15T05:02:59;-2.40;97.40
3705;DHT22;1868;48.918;9.438;2023-02-15T05:05:27;-2.40;97.40
3705;DHT22;1868;48.918;9.438;2023-02-15T05:07:55;-2.50;97.40
3705;DHT22;1868;48.918;9.438;2023-02-15T05:10:24;-2.50;97.40
3705;DHT22;1868;48.918;9.438;2023-02-15T05:12:54;-2.50;97.40
3705;DHT22;1868;48.918;9.438;2023-02-15T05:15:22;-2.50;97.40
3705;DHT22;1868;48.918;9.438;2023-02-15T05:17:50;-2.50;97.40
3705;DHT22;1868;48.918;9.438;2023-02-15T05:20:18;-2.50;97.40
3705;DHT22;1868;48.918;9.438;2023-02-15T05:22:46;-2.50;97.40
3705;DHT22;1868;48.918;9.438;2023-02-15T05:25:15;-2.50;97.40
3705;DHT22;1868;48.918;9.438;2023-02-15T05:28:02;-2.50;97.40
3705;DHT22;1868;48.918;9.438;2023-02-15T05:30:50;-2.50;97.40
3705;DHT22;1868;48.918;9.438;2023-02-15T05:33:25;-2.50;97.40
3705;DHT22;1868;48.918;9.438;2023-02-15T05:35:53;-2.40;97.40
3705;DHT22;1868;48.918;9.438;2023-02-15T05:38:21;-2.40;97.40
3705;DHT22;1868;48.918;9.438;2023-02-15T05:40:50;-2.40;97.40
3705;DHT22;1868;48.918;9.438;2023-02-15T05:43:20;-2.40;97.40
3705;DHT22;1868;48.918;9.438;2023-02-15T05:45:50;-2.50;97.40
3705;DHT22;1868;48.918;9.438;2023-02-15T05:48:20;-2.50;97.40
3705;DHT22;1868;48.918;9.438;2023-02-15T05:50:57;-2.50;97.40
3705;DHT22;1868;48.918;9.438;2023-02-15T05:53:26;-2.50;97.40
3705;DHT22;1868;48.918;9.438;2023-02-15T05:55:55;-2.60;97.40
3705;DHT22;1868;48.918;9.438;2023-02-15T05:58:29;-2.60;97.40
3705;DHT22;1868;48.918;9.438;2023-02-15T06:00:59;-2.60;97.40
3705;DHT22;1868;48.918;9.438;2023-02-15T06:03:34;-2.70;97.40
3705;DHT22;1868;48.918;9.438;2023-02-15T06:06:03;-2.70;97.40
3705;DHT22;1868;48.918;9.438;2023-02-15T06:08:32;-2.70;97.40
3705;DHT22;1868;48.918;9.438;2023-02-15T06:11:00;-2.70;97.40
3705;DHT22;1868;48.918;9.438;2023-02-15T06:13:31;-2.80;97.40
3705;DHT22;1868;48.918;9.438;2023-02-15T06:16:04;-2.80;97.40
3705;DHT22;1868;48.918;9.438;2023-02-15T06:18:32;-2.80;97.40
3705;DHT22;1868;48.918;9.438;2023-02-15T06:21:01;-2.80;97.40
3705;DHT22;1868;48.918;9.438;2023-02-15T06:23:29;-2.90;97.40
3705;DHT22;1868;48.918;9.438;2023-02-15T06:25:57;-2.80;97.40
3705;DHT22;1868;48.918;9.438;2023-02-15T06:28:25;-2.80;97.40
3705;DHT22;1868;48.918;9.438;2023-02-15T06:30:55;-2.80;97.40
3705;DHT22;1868;48.918;9.438;2023-02-15T06:33:24;-2.90;97.40
3705;DHT22;1868;48.918;9.438;2023-02-15T06:35:52;-2.90;97.40
3705;DHT22;1868;48.918;9.438;2023-02-15T06:38:20;-2.90;97.40
3705;DHT22;1868;48.918;9.438;2023-02-15T06:40:48;-2.90;97.40
3705;DHT22;1868;48.918;9.438;2023-02-15T06:43:17;-2.90;97.40
3705;DHT22;1868;48.918;9.438;2023-02-15T06:45:45;-2.90;97.40
3705;DHT22;1868;48.918;9.438;2023-02-15T06:48:14;-2.90;97.40
3705;DHT22;1868;48.918;9.438;2023-02-15T06:50:43;-2.90;97.40
3705;DHT22;1868;48.918;9.438;2023-02-15T06:53:11;-2.80;97.40
3705;DHT22;1868;48.918;9.438;2023-02-15T06:55:39;-2.80;97.40
3705;DHT22;1868;48.918;9.438;2023-02-15T06:58:08;-2.80;97.40
3705;DHT22;1868;48.918;9.438;2023-02-15T07:00:36;-2.80;97.40
3705;DHT22;1868;48.918;9.438;2023-02-15T07:03:04;-2.50;97.40
3705;DHT22;1868;48.918;9.438;2023-02-15T07:05:34;-2.20;97.40
3705;DHT22;1868;48.918;9.438;2023-02-15T07:08:02;-1.90;97.40
3705;DHT22;1868;48.918;9.438;2023-02-15T07:10:33;-1.50;97.40
3705;DHT22;1868;48.918;9.438;2023-02-15T07:13:02;-1.10;97.40
3705;DHT22;1868;48.918;9.438;2023-02-15T07:15:44;-0.50;97.40
3705;DHT22;1868;48.918;9.438;2023-02-15T07:18:12;0.10;97.40
3705;DHT22;1868;48.918;9.438;2023-02-15T07:20:42;0.80;97.40
3705;DHT22;1868;48.918;9.438;2023-02-15T07:23:10;1.40;97.40
3705;DHT22;1868;48.918;9.438;2023-02-15T07:25:41;2.00;97.40
3705;DHT22;1868;48.918;9.438;2023-02-15T07:28:09;2.60;97.40
3705;DHT22;1868;48.918;9.438;2023-02-15T07:30:37;3.00;97.40
3705;DHT22;1868;48.918;9.438;2023-02-15T07:33:07;3.30;97.40
3705;DHT22;1868;48.918;9.438;2023-02-15T07:35:53;3.90;97.40
3705;DHT22;1868;48.918;9.438;2023-02-15T07:38:24;4.40;97.40
3705;DHT22;1868;48.918;9.438;2023-02-15T07:40:58;4.60;97.40
3705;DHT22;1868;48.918;9.438;2023-02-15T07:43:27;5.10;97.40
3705;DHT22;1868;48.918;9.438;2023-02-15T07:45:59;5.20;97.40
3705;DHT22;1868;48.918;9.438;2023-02-15T07:48:28;5.50;97.40
3705;DHT22;1868;48.918;9.438;2023-02-15T07:51:00;5.40;97.20
3705;DHT22;1868;48.918;9.438;2023-02-15T07:53:29;5.70;97.40
3705;DHT22;1868;48.918;9.438;2023-02-15T07:55:58;6.50;97.40
3705;DHT22;1868;48.918;9.438;2023-02-15T07:58:27;7.10;97.40
3705;DHT22;1868;48.918;9.438;2023-02-15T08:01:09;7.60;95.60
3705;DHT22;1868;48.918;9.438;2023-02-15T08:03:37;8.20;96.30
3705;DHT22;1868;48.918;9.438;2023-02-15T08:06:07;8.80;96.10
3705;DHT22;1868;48.918;9.438;2023-02-15T08:08:36;9.50;94.30
3705;DHT22;1868;48.918;9.438;2023-02-15T08:11:06;10.00;90.40
3705;DHT22;1868;48.918;9.438;2023-02-15T08:14:02;10.60;90.60
3705;DHT22;1868;48.918;9.438;2023-02-15T08:16:35;11.20;87.90
3705;DHT22;1868;48.918;9.438;2023-02-15T08:19:06;11.80;87.10
3705;DHT22;1868;48.918;9.438;2023-02-15T08:21:39;12.20;83.80
3705;DHT22;1868;48.918;9.438;2023-02-15T08:24:10;12.70;81.50
3705;DHT22;1868;48.918;9.438;2023-02-15T08:26:40;12.90;77.40
3705;DHT22;1868;48.918;9.438;2023-02-15T08:29:09;13.10;77.40
3705;DHT22;1868;48.918;9.438;2023-02-15T08:31:38;13.40;76.90
3705;DHT22;1868;48.918;9.438;2023-02-15T08:34:09;13.60;75.60
3705;DHT22;1868;48.918;9.438;2023-02-15T08:36:39;14.00;75.60
3705;DHT22;1868;48.918;9.438;2023-02-15T08:39:07;14.50;73.00
3705;DHT22;1868;48.918;9.438;2023-02-15T08:41:38;14.70;68.90
3705;DHT22;1868;48.918;9.438;2023-02-15T08:44:08;15.20;70.90
3705;DHT22;1868;48.918;9.438;2023-02-15T08:46:39;15.50;68.30
3705;DHT22;1868;48.918;9.438;2023-02-15T08:49:09;15.60;65.30
3705;DHT22;1868;48.918;9.438;2023-02-15T08:51:39;16.00;66.60
3705;DHT22;1868;48.918;9.438;2023-02-15T08:54:09;16.50;64.20
3705;DHT22;1868;48.918;9.438;2023-02-15T08:56:41;16.20;57.80
3705;DHT22;1868;48.918;9.438;2023-02-15T08:59:13;16.40;61.40
3705;DHT22;1868;48.918;9.438;2023-02-15T09:01:43;16.90;63.30
3705;DHT22;1868;48.918;9.438;2023-02-15T09:04:12;17.50;61.60
3705;DHT22;1868;48.918;9.438;2023-02-15T09:06:45;17.60;57.70
3705;DHT22;1868;48.918;9.438;2023-02-15T09:09:15;17.60;54.90
3705;DHT22;1868;48.918;9.438;2023-02-15T09:11:45;17.70;57.20
3705;DHT22;1868;48.918;9.438;2023-02-15T09:14:16;18.20;57.80
3705;DHT22;1868;48.918;9.438;2023-02-15T09:16:47;18.70;56.00
3705;DHT22;1868;48.918;9.438;2023-02-15T09:19:19;19.00;54.90
3705;DHT22;1868;48.918;9.438;2023-02-15T09:21:50;19.00;51.10
3705;DHT22;1868;48.918;9.438;2023-02-15T09:24:18;18.80;50.00
3705;DHT22;1868;48.918;9.438;2023-02-15T09:26:47;19.10;51.10
3705;DHT22;1868;48.918;9.438;2023-02-15T09:29:17;19.40;49.90
3705;DHT22;1868;48.918;9.438;2023-02-15T09:31:47;19.60;50.20
3705;DHT22;1868;48.918;9.438;2023-02-15T09:34:18;19.80;48.40
3705;DHT22;1868;48.918;9.438;2023-02-15T09:36:50;19.80;46.80
3705;DHT22;1868;48.918;9.438;2023-02-15T09:39:20;20.20;48.70
3705;DHT22;1868;48.918;9.438;2023-02-15T09:42:10;20.00;45.90
3705;DHT22;1868;48.918;9.438;2023-02-15T09:45:19;20.10;47.60
3705;DHT22;1868;48.918;9.438;2023-02-15T09:51:09;19.90;46.50
3705;DHT22;1868;48.918;9.438;2023-02-15T09:53:59;19.60;47.20
3705;DHT22;1868;48.918;9.438;2023-02-15T09:56:39;19.80;47.80
3705;DHT22;1868;48.918;9.438;2023-02-15T09:59:18;20.50;48.10
3705;DHT22;1868;48.918;9.438;2023-02-15T10:01:55;21.00;47.90
3705;DHT22;1868;48.918;9.438;2023-02-15T10:04:44;21.20;45.30
3705;DHT22;1868;48.918;9.438;2023-02-15T10:07:29;21.20;45.60
3705;DHT22;1868;48.918;9.438;2023-02-15T10:10:20;21.60;45.80
3705;DHT22;1868;48.918;9.438;2023-02-15T10:13:04;21.60;43.00
3705;DHT22;1868;48.918;9.438;2023-02-15T10:15:53;21.60;44.40
3705;DHT22;1868;48.918;9.438;2023-02-15T10:18:43;21.90;44.90
3705;DHT22;1868;48.918;9.438;2023-02-15T10:21:28;22.60;44.10
3705;DHT22;1868;48.918;9.438;2023-02-15T10:24:19;22.90;42.00
3705;DHT22;1868;48.918;9.438;2023-02-15T10:27:18;23.00;40.80
3705;DHT22;1868;48.918;9.438;2023-02-15T10:29:57;23.30;42.40
3705;DHT22;1868;48.918;9.438;2023-02-15T10:32:37;23.70;40.60
3705;DHT22;1868;48.918;9.438;2023-02-15T10:35:14;24.10;41.80
3705;DHT22;1868;48.918;9.438;2023-02-15T10:37:56;24.10;39.80
3705;DHT22;1868;48.918;9.438;2023-02-15T10:40:35;24.50;39.40
3705;DHT22;1868;48.918;9.438;2023-02-15T10:43:24;24.80;39.40
3705;DHT22;1868;48.918;9.438;2023-02-15T10:46:08;24.80;36.30
3705;DHT22;1868;48.918;9.438;2023-02-15T10:48:57;25.00;38.80
3705;DHT22;1868;48.918;9.438;2023-02-15T10:51:51;24.00;36.90
3705;DHT22;1868;48.918;9.438;2023-02-15T10:54:30;22.80;41.20
3705;DHT22;1868;48.918;9.438;2023-02-15T10:57:09;22.80;42.40
3705;DHT22;1868;48.918;9.438;2023-02-15T10:59:53;23.50;39.70
3705;DHT22;1868;48.918;9.438;2023-02-15T11:02:37;23.70;40.60
3705;DHT22;1868;48.918;9.438;2023-02-15T11:05:24;23.90;40.30
3705;DHT22;1868;48.918;9.438;2023-02-15T11:08:00;24.90;39.70
3705;DHT22;1868;48.918;9.438;2023-02-15T11:10:35;25.60;37.40
3705;DHT22;1868;48.918;9.438;2023-02-15T11:13:09;26.00;37.30
3705;DHT22;1868;48.918;9.438;2023-02-15T11:15:44;26.70;36.80
3705;DHT22;1868;48.918;9.438;2023-02-15T11:18:21;26.50;33.60
3705;DHT22;1868;48.918;9.438;2023-02-15T11:20:55;26.90;35.00
3705;DHT22;1868;48.918;9.438;2023-02-15T11:23:26;26.70;34.10
3705;DHT22;1868;48.918;9.438;2023-02-15T11:25:57;26.40;33.10
3705;DHT22;1868;48.918;9.438;2023-02-15T11:28:31;25.00;35.00
3705;DHT22;1868;48.918;9.438;2023-02-15T11:31:18;24.60;36.50
3705;DHT22;1868;48.918;9.438;2023-02-15T11:33:51;24.80;37.90
3705;DHT22;1868;48.918;9.438;2023-02-15T11:36:22;25.40;37.30
3705;DHT22;1868;48.918;9.438;2023-02-15T11:38:58;26.10;35.60
3705;DHT22;1868;48.918;9.438;2023-02-15T11:41:34;25.80;35.30
3705;DHT22;1868;48.918;9.438;2023-02-15T11:44:10;26.00;33.70
3705;DHT22;1868;48.918;9.438;2023-02-15T11:46:43;24.90;36.30
3705;DHT22;1868;48.918;9.438;2023-02-15T11:49:21;24.40;37.70
3705;DHT22;1868;48.918;9.438;2023-02-15T11:51:50;25.30;39.20
3705;DHT22;1868;48.918;9.438;2023-02-15T11:54:23;24.70;37.10
3705;DHT22;1868;48.918;9.438;2023-02-15T11:56:57;23.90;39.10
3705;DHT22;1868;48.918;9.438;2023-02-15T11:59:30;23.50;40.80
3705;DHT22;1868;48.918;9.438;2023-02-15T12:02:02;24.30;40.80
3705;DHT22;1868;48.918;9.438;2023-02-15T12:04:34;25.10;37.70
3705;DHT22;1868;48.918;9.438;2023-02-15T12:07:13;24.90;38.20
3705;DHT22;1868;48.918;9.438;2023-02-15T12:09:48;24.40;37.60
3705;DHT22;1868;48.918;9.438;2023-02-15T12:12:21;24.90;38.20
3705;DHT22;1868;48.918;9.438;2023-02-15T12:14:52;24.80;36.90
3705;DHT22;1868;48.918;9.438;2023-02-15T12:17:24;23.60;40.00
3705;DHT22;1868;48.918;9.438;2023-02-15T12:19:56;23.70;40.90
3705;DHT22;1868;48.918;9.438;2023-02-15T12:22:27;23.80;41.70
3705;DHT22;1868;48.918;9.438;2023-02-15T12:24:59;24.60;39.50
3705;DHT22;1868;48.918;9.438;2023-02-15T12:27:29;24.60;38.80
3705;DHT22;1868;48.918;9.438;2023-02-15T12:30:01;24.20;39.80
3705;DHT22;1868;48.918;9.438;2023-02-15T12:32:36;23.70;41.20
3705;DHT22;1868;48.918;9.438;2023-02-15T12:35:21;24.10;40.50
3705;DHT22;1868;48.918;9.438;2023-02-15T12:37:57;24.70;40.00
3705;DHT22;1868;48.918;9.438;2023-02-15T12:40:29;24.80;39.40
3705;DHT22;1868;48.918;9.438;2023-02-15T12:42:58;24.20;39.10
3705;DHT22;1868;48.918;9.438;2023-02-15T12:45:29;24.90;39.80
3705;DHT22;1868;48.918;9.438;2023-02-15T12:48:16;25.60;39.40
3705;DHT22;1868;48.918;9.438;2023-02-15T12:50:46;25.70;37.10
3705;DHT22;1868;48.918;9.438;2023-02-15T12:53:21;25.60;38.50
3705;DHT22;1868;48.918;9.438;2023-02-15T12:55:53;26.30;37.60
3705;DHT22;1868;48.918;9.438;2023-02-15T12:58:23;26.60;36.90
3705;DHT22;1868;48.918;9.438;2023-02-15T13:01:11;26.40;35.30
3705;DHT22;1868;48.918;9.438;2023-02-15T13:03:56;26.20;36.20
3705;DHT22;1868;48.918;9.438;2023-02-15T13:06:27;26.40;36.60
3705;DHT22;1868;48.918;9.438;2023-02-15T13:08:58;26.80;36.00
3705;DHT22;1868;48.918;9.438;2023-02-15T13:11:34;27.00;34.20
3705;DHT22;1868;48.918;9.438;2023-02-15T13:14:16;26.90;34.50
3705;DHT22;1868;48.918;9.438;2023-02-15T13:16:48;26.90;35.00
3705;DHT22;1868;48.918;9.438;2023-02-15T13:19:26;26.80;33.70
3705;DHT22;1868;48.918;9.438;2023-02-15T13:21:58;27.10;34.20
3705;DHT22;1868;48.918;9.438;2023-02-15T13:24:33;27.30;32.70
3705;DHT22;1868;48.918;9.438;2023-02-15T13:27:07;27.20;32.40
3705;DHT22;1868;48.918;9.438;2023-02-15T13:29:45;26.40;33.10
3705;DHT22;1868;48.918;9.438;2023-02-15T13:32:26;26.10;34.50
3705;DHT22;1868;48.918;9.438;2023-02-15T13:34:59;26.70;35.30
3705;DHT22;1868;48.918;9.438;2023-02-15T13:37:45;27.00;34.40
3705;DHT22;1868;48.918;9.438;2023-02-15T13:40:33;27.30;33.00
3705;DHT22;1868;48.918;9.438;2023-02-15T13:43:15;27.20;33.00
3705;DHT22;1868;48.918;9.438;2023-02-15T13:46:01;27.30;32.40
3705;DHT22;1868;48.918;9.438;2023-02-15T13:48:43;27.00;33.40
3705;DHT22;1868;48.918;9.438;2023-02-15T13:51:21;26.80;34.20
3705;DHT22;1868;48.918;9.438;2023-02-15T13:54:07;26.70;34.10
3705;DHT22;1868;48.918;9.438;2023-02-15T13:56:53;26.30;35.10
3705;DHT22;1868;48.918;9.438;2023-02-15T13:59:44;26.50;34.50
3705;DHT22;1868;48.918;9.438;2023-02-15T14:02:41;26.20;34.70
3705;DHT22;1868;48.918;9.438;2023-02-15T14:05:41;26.00;36.20
3705;DHT22;1868;48.918;9.438;2023-02-15T14:08:34;25.70;35.70
3705;DHT22;1868;48.918;9.438;2023-02-15T14:11:13;26.10;35.70
3705;DHT22;1868;48.918;9.438;2023-02-15T14:16:56;26.20;33.90
3705;DHT22;1868;48.918;9.438;2023-02-15T14:19:37;26.30;33.60
3705;DHT22;1868;48.918;9.438;2023-02-15T14:22:15;25.90;32.80
3705;DHT22;1868;48.918;9.438;2023-02-15T14:24:59;25.50;34.40
3705;DHT22;1868;48.918;9.438;2023-02-15T14:27:45;24.90;32.80
3705;DHT22;1868;48.918;9.438;2023-02-15T14:30:22;24.40;35.10
3705;DHT22;1868;48.918;9.438;2023-02-15T14:32:55;24.30;35.70
3705;DHT22;1868;48.918;9.438;2023-02-15T14:35:29;24.40;35.60
3705;DHT22;1868;48.918;9.438;2023-02-15T14:38:02;24.60;36.30
3705;DHT22;1868;48.918;9.438;2023-02-15T14:40:41;24.50;35.90
3705;DHT22;1868;48.918;9.438;2023-02-15T14:43:38;24.00;37.70
3705;DHT22;1868;48.918;9.438;2023-02-15T14:46:21;23.40;37.90
3705;DHT22;1868;48.918;9.438;2023-02-15T14:48:55;23.20;40.10
3705;DHT22;1868;48.918;9.438;2023-02-15T14:51:59;23.60;40.50
3705;DHT22;1868;48.918;9.438;2023-02-15T14:55:01;24.00;39.80
3705;DHT22;1868;48.918;9.438;2023-02-15T14:57:34;23.80;40.60
3705;DHT22;1868;48.918;9.438;2023-02-15T15:03:21;23.40;41.10
3705;DHT22;1868;48.918;9.438;2023-02-15T15:05:53;22.90;41.70
3705;DHT22;1868;48.918;9.438;2023-02-15T15:08:31;22.50;42.00
3705;DHT22;1868;48.918;9.438;2023-02-15T15:14:41;21.00;44.30
3705;DHT22;1868;48.918;9.438;2023-02-15T15:17:11;19.70;47.00
3705;DHT22;1868;48.918;9.438;2023-02-15T15:20:11;19.00;47.90
3705;DHT22;1868;48.918;9.438;2023-02-15T15:22:42;18.30;49.90
3705;DHT22;1868;48.918;9.438;2023-02-15T15:25:39;17.60;50.80
3705;DHT22;1868;48.918;9.438;2023-02-15T15:28:08;17.20;51.60
3705;DHT22;1868;48.918;9.438;2023-02-15T15:31:00;16.70;53.50
3705;DHT22;1868;48.918;9.438;2023-02-15T15:37:29;15.70;55.40
3705;DHT22;1868;48.918;9.438;2023-02-15T15:40:54;15.00;60.90
3705;DHT22;1868;48.918;9.438;2023-02-15T15:47:13;13.80;65.30
3705;DHT22;1868;48.918;9.438;2023-02-15T15:49:55;13.50;66.80
3705;DHT22;1868;48.918;9.438;2023-02-15T15:52:24;13.20;68.70
3705;DHT22;1868;48.918;9.438;2023-02-15T15:54:57;12.90;70.20
3705;DHT22;1868;48.918;9.438;2023-02-15T15:57:33;12.60;73.30
3705;DHT22;1868;48.918;9.438;2023-02-15T16:00:05;12.40;73.20
3705;DHT22;1868;48.918;9.438;2023-02-15T16:02:56;12.30;75.00
3705;DHT22;1868;48.918;9.438;2023-02-15T16:05:24;12.00;75.40
3705;DHT22;1868;48.918;9.438;2023-02-15T16:07:53;11.80;78.20
3705;DHT22;1868;48.918;9.438;2023-02-15T16:10:22;11.60;79.10
3705;DHT22;1868;48.918;9.438;2023-02-15T16:12:53;11.50;82.30
3705;DHT22;1868;48.918;9.438;2023-02-15T16:15:24;11.30;82.30
3705;DHT22;1868;48.918;9.438;2023-02-15T16:17:57;11.20;85.10
3705;DHT22;1868;48.918;9.438;2023-02-15T16:20:29;11.00;87.30
3705;DHT22;1868;48.918;9.438;2023-02-15T16:23:09;10.80;89.40
3705;DHT22;1868;48.918;9.438;2023-02-15T16:25:54;10.70;90.70
3705;DHT22;1868;48.918;9.438;2023-02-15T16:28:25;10.50;90.90
3705;DHT22;1868;48.918;9.438;2023-02-15T16:31:06;10.30;91.90
3705;DHT22;1868;48.918;9.438;2023-02-15T16:33:41;10.10;92.80
3705;DHT22;1868;48.918;9.438;2023-02-15T16:36:13;9.90;94.10
3705;DHT22;1868;48.918;9.438;2023-02-15T16:39:07;9.70;94.80
3705;DHT22;1868;48.918;9.438;2023-02-15T16:41:38;9.50;94.80
3705;DHT22;1868;48.918;9.438;2023-02-15T16:44:11;9.30;96.80
3705;DHT22;1868;48.918;9.438;2023-02-15T16:46:46;9.10;97.40
3705;DHT22;1868;48.918;9.438;2023-02-15T16:49:19;9.00;97.40
3705;DHT22;1868;48.918;9.438;2023-02-15T16:51:55;8.80;97.40
3705;DHT22;1868;48.918;9.438;2023-02-15T16:54:26;8.70;96.90
3705;DHT22;1868;48.918;9.438;2023-02-15T16:56:55;8.50;97.40
3705;DHT22;1868;48.918;9.438;2023-02-15T16:59:32;8.30;97.40
3705;DHT22;1868;48.918;9.438;2023-02-15T17:02:04;8.20;97.40
3705;DHT22;1868;48.918;9.438;2023-02-15T17:04:35;8.10;97.40
3705;DHT22;1868;48.918;9.438;2023-02-15T17:07:06;8.00;97.40
3705;DHT22;1868;48.918;9.438;2023-02-15T17:09:51;7.90;97.40
3705;DHT22;1868;48.918;9.438;2023-02-15T17:12:44;7.80;97.40
3705;DHT22;1868;48.918;9.438;2023-02-15T17:15:28;7.70;97.40
3705;DHT22;1868;48.918;9.438;2023-02-15T17:18:00;7.60;97.40
3705;DHT22;1868;48.918;9.438;2023-02-15T17:20:33;7.50;97.40